sensor_id;sensor_type;location;lat;lon;timestamp;temperature;humidity
13211;DHT22;6670;51.53087800;7.23266500;2023-05-27T00:02:11;12.90;99.90
13211;DHT22;6670;51.53087800;7.23266500;2023-05-27T00:04:39;13.00;99.90
13211;DHT22;6670;51.53087800;7.23266500;2023-05-27T00:07:07;13.20;99.90
13211;DHT22;6670;51.53087800;7.23266500;2023-05-27T00:09:34;13.10;99.90
13211;DHT22;6670;51.53087800;7.23266500;2023-05-27T00:12:02;13.00;99.90
13211;DHT22;6670;51.53087800;7.23266500;2023-05-27T00:14:29;12.90;99.90
13211;DHT22;6670;51.53087800;7.23266500;2023-05-27T00:16:56;12.90;99.90
13211;DHT22;6670;51.53087800;7.23266500;2023-05-27T00:19:26;12.70;99.90
13211;DHT22;6670;51.53087800;7.23266500;2023-05-27T00:21:55;12.40;99.90
13211;DHT22;6670;51.53087800;7.23266500;2023-05-27T00:24:22;12.40;99.90
13211;DHT22;6670;51.53087800;7.23266500;2023-05-27T00:26:50;12.50;99.90
13211;DHT22;6670;51.53087800;7.23266500;2023-05-27T00:29:17;12.50;99.90
13211;DHT22;6670;51.53087800;7.23266500;2023-05-27T00:32:04;12.70;99.90
13211;DHT22;6670;51.53087800;7.23266500;2023-05-27T00:34:33;12.30;99.90
13211;DHT22;6670;51.53087800;7.23266500;2023-05-27T00:37:01;12.30;99.90
13211;DHT22;6670;51.53087800;7.23266500;2023-05-27T00:39:28;12.40;99.90
13211;DHT22;6670;51.53087800;7.23266500;2023-05-27T00:41:56;12.40;99.90
13211;DHT22;6670;51.53087800;7.23266500;2023-05-27T00:44:24;12.30;99.90
13211;DHT22;6670;51.53087800;7.23266500;2023-05-27T00:46:51;12.20;99.90
13211;DHT22;6670;51.53087800;7.23266500;2023-05-27T00:49:19;12.10;99.90
13211;DHT22;6670;51.53087800;7.23266500;2023-05-27T00:51:48;12.30;99.90
13211;DHT22;6670;51.53087800;7.23266500;2023-05-27T00:54:15;12.20;99.90
13211;DHT22;6670;51.53087800;7.23266500;2023-05-27T00:56:43;12.20;99.90
13211;DHT22;6670;51.53087800;7.23266500;2023-05-27T00:59:11;12.20;99.90
13211;DHT22;6670;51.53087800;7.23266500;2023-05-27T01:01:40;12.20;99.90
13211;DHT22;6670;51.53087800;7.23266500;2023-05-27T01:04:10;12.00;99.90
13211;DHT22;6670;51.53087800;7.23266500;2023-05-27T01:06:44;12.10;99.90
13211;DHT22;6670;51.53087800;7.23266500;2023-05-27T01:09:22;12.20;99.90
13211;DHT22;6670;51.53087800;7.23266500;2023-05-27T01:11:59;12.10;99.90
13211;DHT22;6670;51.53087800;7.23266500;2023-05-27T01:14:30;12.10;99.90
13211;DHT22;6670;51.53087800;7.23266500;2023-05-27T01:16:59;12.20;99.90
13211;DHT22;6670;51.53087800;7.23266500;2023-05-27T01:19:32;12.10;99.90
13211;DHT22;6670;51.53087800;7.23266500;2023-05-27T01:22:01;12.00;99.90
13211;DHT22;6670;51.53087800;7.23266500;2023-05-27T01:24:31;12.10;99.90
13211;DHT22;6670;51.53087800;7.23266500;2023-05-27T01:26:59;12.00;99.90
13211;DHT22;6670;51.53087800;7.23266500;2023-05-27T01:29:29;11.90;99.90
13211;DHT22;6670;51.53087800;7.23266500;2023-05-27T01:32:01;12.20;99.90
13211;DHT22;6670;51.53087800;7.23266500;2023-05-27T01:34:36;12.20;99.90
13211;DHT22;6670;51.53087800;7.23266500;2023-05-27T01:37:06;12.10;99.90
13211;DHT22;6670;51.53087800;7.23266500;2023-05-27T01:39:35;12.20;99.90
13211;DHT22;6670;51.53087800;7.23266500;2023-05-27T01:42:05;12.00;99.90
13211;DHT22;6670;51.53087800;7.23266500;2023-05-27T01:44:32;12.00;99.90
13211;DHT22;6670;51.53087800;7.23266500;2023-05-27T01:47:02;12.00;99.90
13211;DHT22;6670;51.53087800;7.23266500;2023-05-27T01:49:30;12.10;99.90
13211;DHT22;6670;51.53087800;7.23266500;2023-05-27T01:51:57;12.10;99.90
13211;DHT22;6670;51.53087800;7.23266500;2023-05-27T01:54:25;12.30;99.90
13211;DHT22;6670;51.53087800;7.23266500;2023-05-27T01:56:54;12.00;99.90
13211;DHT22;6670;51.53087800;7.23266500;2023-05-27T01:59:21;12.00;99.90
13211;DHT22;6670;51.53087800;7.23266500;2023-05-27T02:01:48;11.80;99.90
13211;DHT22;6670;51.53087800;7.23266500;2023-05-27T02:04:16;11.80;99.90
13211;DHT22;6670;51.53087800;7.23266500;2023-05-27T02:06:43;11.60;99.90
13211;DHT22;6670;51.53087800;7.23266500;2023-05-27T02:09:18;11.70;99.90
13211;DHT22;6670;51.53087800;7.23266500;2023-05-27T02:11:46;11.80;99.90
13211;DHT22;6670;51.53087800;7.23266500;2023-05-27T02:14:15;11.70;99.90
13211;DHT22;6670;51.53087800;7.23266500;2023-05-27T02:16:43;11.50;99.90
13211;DHT22;6670;51.53087800;7.23266500;2023-05-27T02:19:10;11.60;99.90
13211;DHT22;6670;51.53087800;7.23266500;2023-05-27T02:21:38;11.50;99.90
13211;DHT22;6670;51.53087800;7.23266500;2023-05-27T02:24:06;11.50;99.90
13211;DHT22;6670;51.53087800;7.23266500;2023-05-27T02:26:33;11.50;99.90
13211;DHT22;6670;51.53087800;7.23266500;2023-05-27T02:29:02;11.30;99.90
13211;DHT22;6670;51.53087800;7.23266500;2023-05-27T02:31:31;11.30;99.90
13211;DHT22;6670;51.53087800;7.23266500;2023-05-27T02:33:58;11.40;99.90
13211;DHT22;6670;51.53087800;7.23266500;2023-05-27T02:36:26;11.30;99.90
13211;DHT22;6670;51.53087800;7.23266500;2023-05-27T02:38:55;11.20;99.90
13211;DHT22;6670;51.53087800;7.23266500;2023-05-27T02:41:22;11.10;99.90
13211;DHT22;6670;51.53087800;7.23266500;2023-05-27T02:43:50;11.10;99.90
13211;DHT22;6670;51.53087800;7.23266500;2023-05-27T02:46:17;11.10;99.90
13211;DHT22;6670;51.53087800;7.23266500;2023-05-27T02:48:46;11.10;99.90
13211;DHT22;6670;51.53087800;7.23266500;2023-05-27T02:51:14;11.00;99.90
13211;DHT22;6670;51.53087800;7.23266500;2023-05-27T02:53:41;10.90;99.90
13211;DHT22;6670;51.53087800;7.23266500;2023-05-27T02:56:09;10.90;99.90
13211;DHT22;6670;51.53087800;7.23266500;2023-05-27T02:58:36;10.80;99.90
13211;DHT22;6670;51.53087800;7.23266500;2023-05-27T03:01:04;10.90;99.90
13211;DHT22;6670;51.53087800;7.23266500;2023-05-27T03:03:31;10.70;99.90
13211;DHT22;6670;51.53087800;7.23266500;2023-05-27T03:06:00;10.80;99.90
13211;DHT22;6670;51.53087800;7.23266500;2023-05-27T03:08:28;11.00;99.90
13211;DHT22;6670;51.53087800;7.23266500;2023-05-27T03:10:57;11.00;99.90
13211;DHT22;6670;51.53087800;7.23266500;2023-05-27T03:13:24;11.00;99.90
13211;DHT22;6670;51.53087800;7.23266500;2023-05-27T03:15:52;10.90;99.90
13211;DHT22;6670;51.53087800;7.23266500;2023-05-27T03:18:26;10.90;99.90
13211;DHT22;6670;51.53087800;7.23266500;2023-05-27T03:20:54;11.10;99.90
13211;DHT22;6670;51.53087800;7.23266500;2023-05-27T03:23:23;10.80;99.90
13211;DHT22;6670;51.53087800;7.23266500;2023-05-27T03:25:50;10.90;99.90
13211;DHT22;6670;51.53087800;7.23266500;2023-05-27T03:28:18;11.10;99.90
13211;DHT22;6670;51.53087800;7.23266500;2023-05-27T03:30:45;10.90;99.90
13211;DHT22;6670;51.53087800;7.23266500;2023-05-27T03:33:24;10.80;99.90
13211;DHT22;6670;51.53087800;7.23266500;2023-05-27T03:35:52;10.80;99.90
13211;DHT22;6670;51.53087800;7.23266500;2023-05-27T03:38:23;10.60;99.90
13211;DHT22;6670;51.53087800;7.23266500;2023-05-27T03:40:50;10.60;99.90
13211;DHT22;6670;51.53087800;7.23266500;2023-05-27T03:43:18;10.50;99.90
13211;DHT22;6670;51.53087800;7.23266500;2023-05-27T03:45:45;10.40;99.90
13211;DHT22;6670;51.53087800;7.23266500;2023-05-27T03:48:13;10.50;99.90
13211;DHT22;6670;51.53087800;7.23266500;2023-05-27T03:50:40;10.60;99.90
13211;DHT22;6670;51.53087800;7.23266500;2023-05-27T03:53:08;10.50;99.90
13211;DHT22;6670;51.53087800;7.23266500;2023-05-27T03:55:37;10.60;99.90
13211;DHT22;6670;51.53087800;7.23266500;2023-05-27T03:58:04;10.80;99.90
13211;DHT22;6670;51.53087800;7.23266500;2023-05-27T04:00:32;10.80;99.90
13211;DHT22;6670;51.53087800;7.23266500;2023-05-27T04:03:02;10.70;99.90
13211;DHT22;6670;51.53087800;7.23266500;2023-05-27T04:05:30;10.60;99.90
13211;DHT22;6670;51.53087800;7.23266500;2023-05-27T04:07:58;10.90;99.90
13211;DHT22;6670;51.53087800;7.23266500;2023-05-27T04:10:25;10.80;99.90
13211;DHT22;6670;51.53087800;7.23266500;2023-05-27T04:12:57;11.00;99.90
13211;DHT22;6670;51.53087800;7.23266500;2023-05-27T04:15:24;10.80;99.90
13211;DHT22;6670;51.53087800;7.23266500;2023-05-27T04:17:52;10.90;99.90
13211;DHT22;6670;51.53087800;7.23266500;2023-05-27T04:20:19;11.00;99.90
13211;DHT22;6670;51.53087800;7.23266500;2023-05-27T04:22:52;11.20;99.90
13211;DHT22;6670;51.53087800;7.23266500;2023-05-27T04:25:20;11.20;99.90
13211;DHT22;6670;51.53087800;7.23266500;2023-05-27T04:28:10;11.30;99.90
13211;DHT22;6670;51.53087800;7.23266500;2023-05-27T04:30:41;11.30;99.90
13211;DHT22;6670;51.53087800;7.23266500;2023-05-27T04:33:15;11.20;99.90
13211;DHT22;6670;51.53087800;7.23266500;2023-05-27T04:35:43;11.20;99.90
13211;DHT22;6670;51.53087800;7.23266500;2023-05-27T04:38:26;11.20;99.90
13211;DHT22;6670;51.53087800;7.23266500;2023-05-27T04:41:02;11.20;99.90
13211;DHT22;6670;51.53087800;7.23266500;2023-05-27T04:43:51;11.20;99.90
13211;DHT22;6670;51.53087800;7.23266500;2023-05-27T04:46:23;11.20;99.90
13211;DHT22;6670;51.53087800;7.23266500;2023-05-27T04:48:51;11.10;99.90
13211;DHT22;6670;51.53087800;7.23266500;2023-05-27T04:51:19;11.10;99.90
13211;DHT22;6670;51.53087800;7.23266500;2023-05-27T04:53:47;11.20;99.90
13211;DHT22;6670;51.53087800;7.23266500;2023-05-27T04:56:15;11.40;99.90
13211;DHT22;6670;51.53087800;7.23266500;2023-05-27T04:58:44;11.30;99.90
13211;DHT22;6670;51.53087800;7.23266500;2023-05-27T05:01:29;11.40;99.90
13211;DHT22;6670;51.53087800;7.23266500;2023-05-27T05:04:28;11.10;99.90
13211;DHT22;6670;51.53087800;7.23266500;2023-05-27T05:07:15;11.20;99.90
13211;DHT22;6670;51.53087800;7.23266500;2023-05-27T05:09:54;10.90;99.90
13211;DHT22;6670;51.53087800;7.23266500;2023-05-27T05:12:29;11.00;99.90
13211;DHT22;6670;51.53087800;7.23266500;2023-05-27T05:14:57;10.90;99.90
13211;DHT22;6670;51.53087800;7.23266500;2023-05-27T05:17:27;10.60;99.90
13211;DHT22;6670;51.53087800;7.23266500;2023-05-27T05:19:56;10.80;99.90
13211;DHT22;6670;51.53087800;7.23266500;2023-05-27T05:22:25;11.00;99.90
13211;DHT22;6670;51.53087800;7.23266500;2023-05-27T05:24:54;11.30;99.90
13211;DHT22;6670;51.53087800;7.23266500;2023-05-27T05:27:30;11.40;99.90
13211;DHT22;6670;51.53087800;7.23266500;2023-05-27T05:29:58;11.50;99.90
13211;DHT22;6670;51.53087800;7.23266500;2023-05-27T05:32:26;11.60;99.90
13211;DHT22;6670;51.53087800;7.23266500;2023-05-27T05:34:54;11.50;99.90
13211;DHT22;6670;51.53087800;7.23266500;2023-05-27T05:37:22;11.30;99.90
13211;DHT22;6670;51.53087800;7.23266500;2023-05-27T05:40:05;11.50;99.90
13211;DHT22;6670;51.53087800;7.23266500;2023-05-27T05:42:36;11.40;99.90
13211;DHT22;6670;51.53087800;7.23266500;2023-05-27T05:45:12;11.50;99.90
13211;DHT22;6670;51.53087800;7.23266500;2023-05-27T05:47:44;11.70;99.90
13211;DHT22;6670;51.53087800;7.23266500;2023-05-27T05:50:16;11.70;99.90
13211;DHT22;6670;51.53087800;7.23266500;2023-05-27T05:52:43;11.80;99.90
13211;DHT22;6670;51.53087800;7.23266500;2023-05-27T05:55:11;12.00;99.90
13211;DHT22;6670;51.53087800;7.23266500;2023-05-27T05:57:40;12.00;99.90
13211;DHT22;6670;51.53087800;7.23266500;2023-05-27T06:00:11;12.00;99.90
13211;DHT22;6670;51.53087800;7.23266500;2023-05-27T06:02:47;12.30;99.90
13211;DHT22;6670;51.53087800;7.23266500;2023-05-27T06:05:49;12.40;99.90
13211;DHT22;6670;51.53087800;7.23266500;2023-05-27T06:08:17;12.60;99.90
13211;DHT22;6670;51.53087800;7.23266500;2023-05-27T06:10:52;12.70;99.90
13211;DHT22;6670;51.53087800;7.23266500;2023-05-27T06:13:19;12.50;99.90
13211;DHT22;6670;51.53087800;7.23266500;2023-05-27T06:15:49;12.30;99.90
13211;DHT22;6670;51.53087800;7.23266500;2023-05-27T06:18:18;12.40;99.90
13211;DHT22;6670;51.53087800;7.23266500;2023-05-27T06:20:46;12.30;99.90
13211;DHT22;6670;51.53087800;7.23266500;2023-05-27T06:23:13;12.40;99.90
13211;DHT22;6670;51.53087800;7.23266500;2023-05-27T06:25:53;12.40;99.90
13211;DHT22;6670;51.53087800;7.23266500;2023-05-27T06:28:21;12.60;99.90
13211;DHT22;6670;51.53087800;7.23266500;2023-05-27T06:30:49;12.70;99.90
13211;DHT22;6670;51.53087800;7.23266500;2023-05-27T06:33:18;12.70;99.90
13211;DHT22;6670;51.53087800;7.23266500;2023-05-27T06:35:45;12.70;99.90
13211;DHT22;6670;51.53087800;7.23266500;2023-05-27T06:38:13;12.80;99.90
13211;DHT22;6670;51.53087800;7.23266500;2023-05-27T06:40:41;13.00;99.90
13211;DHT22;6670;51.53087800;7.23266500;2023-05-27T06:43:10;12.80;99.90
13211;DHT22;6670;51.53087800;7.23266500;2023-05-27T06:45:54;12.80;99.90
13211;DHT22;6670;51.53087800;7.23266500;2023-05-27T06:48:46;12.90;99.90
13211;DHT22;6670;51.53087800;7.23266500;2023-05-27T06:51:15;13.10;99.90
13211;DHT22;6670;51.53087800;7.23266500;2023-05-27T06:53:43;13.20;99.90
13211;DHT22;6670;51.53087800;7.23266500;2023-05-27T06:56:15;13.00;99.90
13211;DHT22;6670;51.53087800;7.23266500;2023-05-27T06:59:01;13.10;99.90
13211;DHT22;6670;51.53087800;7.23266500;2023-05-27T07:01:29;12.90;99.90
13211;DHT22;6670;51.53087800;7.23266500;2023-05-27T07:04:10;13.10;99.90
13211;DHT22;6670;51.53087800;7.23266500;2023-05-27T07:06:44;13.40;99.90
13211;DHT22;6670;51.53087800;7.23266500;2023-05-27T07:09:12;13.40;99.90
13211;DHT22;6670;51.53087800;7.23266500;2023-05-27T07:11:40;13.80;99.90
13211;DHT22;6670;51.53087800;7.23266500;2023-05-27T07:14:12;14.10;99.90
13211;DHT22;6670;51.53087800;7.23266500;2023-05-27T07:16:42;14.00;99.90
13211;DHT22;6670;51.53087800;7.23266500;2023-05-27T07:19:13;14.60;99.90
13211;DHT22;6670;51.53087800;7.23266500;2023-05-27T07:21:49;14.30;99.90
13211;DHT22;6670;51.53087800;7.23266500;2023-05-27T07:24:20;14.10;99.90
13211;DHT22;6670;51.53087800;7.23266500;2023-05-27T07:26:48;13.80;99.90
13211;DHT22;6670;51.53087800;7.23266500;2023-05-27T07:29:17;14.00;99.90
13211;DHT22;6670;51.53087800;7.23266500;2023-05-27T07:31:53;13.90;99.90
13211;DHT22;6670;51.53087800;7.23266500;2023-05-27T07:34:26;14.00;99.90
13211;DHT22;6670;51.53087800;7.23266500;2023-05-27T07:37:00;14.10;99.90
13211;DHT22;6670;51.53087800;7.23266500;2023-05-27T07:39:27;14.20;99.90
13211;DHT22;6670;51.53087800;7.23266500;2023-05-27T07:41:55;14.20;99.90
13211;DHT22;6670;51.53087800;7.23266500;2023-05-27T07:44:23;14.40;99.90
13211;DHT22;6670;51.53087800;7.23266500;2023-05-27T07:46:51;14.30;99.90
13211;DHT22;6670;51.53087800;7.23266500;2023-05-27T07:49:18;14.60;99.90
13211;DHT22;6670;51.53087800;7.23266500;2023-05-27T07:52:07;14.70;99.90
13211;DHT22;6670;51.53087800;7.23266500;2023-05-27T07:54:34;14.80;99.90
13211;DHT22;6670;51.53087800;7.23266500;2023-05-27T07:57:02;14.90;99.90
13211;DHT22;6670;51.53087800;7.23266500;2023-05-27T07:59:59;15.10;99.90
13211;DHT22;6670;51.53087800;7.23266500;2023-05-27T08:02:41;15.10;99.90
13211;DHT22;6670;51.53087800;7.23266500;2023-05-27T08:05:09;15.00;99.90
13211;DHT22;6670;51.53087800;7.23266500;2023-05-27T08:07:58;15.10;99.90
13211;DHT22;6670;51.53087800;7.23266500;2023-05-27T08:10:48;15.10;99.90
13211;DHT22;6670;51.53087800;7.23266500;2023-05-27T08:13:36;15.20;99.90
13211;DHT22;6670;51.53087800;7.23266500;2023-05-27T08:16:42;15.20;99.90
13211;DHT22;6670;51.53087800;7.23266500;2023-05-27T08:19:18;15.40;99.90
13211;DHT22;6670;51.53087800;7.23266500;2023-05-27T08:21:52;15.10;99.90
13211;DHT22;6670;51.53087800;7.23266500;2023-05-27T08:24:49;15.30;99.90
13211;DHT22;6670;51.53087800;7.23266500;2023-05-27T08:27:48;15.60;99.90
13211;DHT22;6670;51.53087800;7.23266500;2023-05-27T08:30:27;15.60;99.90
13211;DHT22;6670;51.53087800;7.23266500;2023-05-27T08:33:01;15.80;99.90
13211;DHT22;6670;51.53087800;7.23266500;2023-05-27T08:35:30;15.80;99.90
13211;DHT22;6670;51.53087800;7.23266500;2023-05-27T08:37:59;15.90;99.90
13211;DHT22;6670;51.53087800;7.23266500;2023-05-27T08:40:34;15.90;99.90
13211;DHT22;6670;51.53087800;7.23266500;2023-05-27T08:43:02;16.00;99.90
13211;DHT22;6670;51.53087800;7.23266500;2023-05-27T08:45:30;16.20;99.90
13211;DHT22;6670;51.53087800;7.23266500;2023-05-27T08:47:59;16.30;99.90
13211;DHT22;6670;51.53087800;7.23266500;2023-05-27T08:50:34;16.30;99.90
13211;DHT22;6670;51.53087800;7.23266500;2023-05-27T08:53:02;16.20;99.90
13211;DHT22;6670;51.53087800;7.23266500;2023-05-27T08:55:32;16.30;99.90
13211;DHT22;6670;51.53087800;7.23266500;2023-05-27T08:58:02;16.50;99.90
13211;DHT22;6670;51.53087800;7.23266500;2023-05-27T09:00:34;16.60;99.90
13211;DHT22;6670;51.53087800;7.23266500;2023-05-27T09:03:15;16.60;99.90
13211;DHT22;6670;51.53087800;7.23266500;2023-05-27T09:05:42;16.70;99.90
13211;DHT22;6670;51.53087800;7.23266500;2023-05-27T09:08:10;16.80;99.90
13211;DHT22;6670;51.53087800;7.23266500;2023-05-27T09:10:38;16.90;99.90
13211;DHT22;6670;51.53087800;7.23266500;2023-05-27T09:13:07;16.90;99.90
13211;DHT22;6670;51.53087800;7.23266500;2023-05-27T09:15:35;16.80;99.90
13211;DHT22;6670;51.53087800;7.23266500;2023-05-27T09:18:04;16.80;99.90
13211;DHT22;6670;51.53087800;7.23266500;2023-05-27T09:20:32;16.90;99.90
13211;DHT22;6670;51.53087800;7.23266500;2023-05-27T09:23:01;17.00;99.90
13211;DHT22;6670;51.53087800;7.23266500;2023-05-27T09:25:28;17.00;99.90
13211;DHT22;6670;51.53087800;7.23266500;2023-05-27T09:27:56;17.00;99.90
13211;DHT22;6670;51.53087800;7.23266500;2023-05-27T09:30:25;17.20;99.90
13211;DHT22;6670;51.53087800;7.23266500;2023-05-27T09:33:00;17.30;99.90
13211;DHT22;6670;51.53087800;7.23266500;2023-05-27T09:35:28;17.20;99.90
13211;DHT22;6670;51.53087800;7.23266500;2023-05-27T09:38:05;17.30;99.90
13211;DHT22;6670;51.53087800;7.23266500;2023-05-27T09:40:35;17.40;99.90
13211;DHT22;6670;51.53087800;7.23266500;2023-05-27T09:43:03;17.30;99.90
13211;DHT22;6670;51.53087800;7.23266500;2023-05-27T09:45:57;17.50;99.90
13211;DHT22;6670;51.53087800;7.23266500;2023-05-27T09:48:31;17.50;99.90
13211;DHT22;6670;51.53087800;7.23266500;2023-05-27T09:50:59;17.60;99.90
13211;DHT22;6670;51.53087800;7.23266500;2023-05-27T09:53:27;17.60;99.90
13211;DHT22;6670;51.53087800;7.23266500;2023-05-27T09:55:57;17.70;99.90
13211;DHT22;6670;51.53087800;7.23266500;2023-05-27T09:58:25;17.70;98.60
13211;DHT22;6670;51.53087800;7.23266500;2023-05-27T10:00:53;17.60;99.70
13211;DHT22;6670;51.53087800;7.23266500;2023-05-27T10:03:23;17.70;99.80
13211;DHT22;6670;51.53087800;7.23266500;2023-05-27T10:05:51;17.70;97.60
13211;DHT22;6670;51.53087800;7.23266500;2023-05-27T10:08:19;17.80;96.90
13211;DHT22;6670;51.53087800;7.23266500;2023-05-27T10:10:46;17.90;96.20
13211;DHT22;6670;51.53087800;7.23266500;2023-05-27T10:13:15;17.80;94.50
13211;DHT22;6670;51.53087800;7.23266500;2023-05-27T10:15:46;18.00;95.00
13211;DHT22;6670;51.53087800;7.23266500;2023-05-27T10:18:23;18.00;95.00
13211;DHT22;6670;51.53087800;7.23266500;2023-05-27T10:20:53;18.00;93.90
13211;DHT22;6670;51.53087800;7.23266500;2023-05-27T10:23:24;18.10;94.10
13211;DHT22;6670;51.53087800;7.23266500;2023-05-27T10:25:53;18.20;93.90
13211;DHT22;6670;51.53087800;7.23266500;2023-05-27T10:28:29;18.30;94.00
13211;DHT22;6670;51.53087800;7.23266500;2023-05-27T10:31:04;18.40;92.90
13211;DHT22;6670;51.53087800;7.23266500;2023-05-27T10:33:34;18.30;93.00
13211;DHT22;6670;51.53087800;7.23266500;2023-05-27T10:36:10;18.30;93.00
13211;DHT22;6670;51.53087800;7.23266500;2023-05-27T10:38:41;18.40;92.90
13211;DHT22;6670;51.53087800;7.23266500;2023-05-27T10:41:19;18.60;92.30
13211;DHT22;6670;51.53087800;7.23266500;2023-05-27T10:43:57;18.60;91.40
13211;DHT22;6670;51.53087800;7.23266500;2023-05-27T10:46:25;18.60;91.40
13211;DHT22;6670;51.53087800;7.23266500;2023-05-27T10:48:54;18.90;91.90
13211;DHT22;6670;51.53087800;7.23266500;2023-05-27T10:51:31;19.10;92.90
13211;DHT22;6670;51.53087800;7.23266500;2023-05-27T10:54:03;19.00;92.60
13211;DHT22;6670;51.53087800;7.23266500;2023-05-27T10:56:30;19.20;92.20
13211;DHT22;6670;51.53087800;7.23266500;2023-05-27T10:59:00;19.30;91.30
13211;DHT22;6670;51.53087800;7.23266500;2023-05-27T11:01:29;19.40;91.00
13211;DHT22;6670;51.53087800;7.23266500;2023-05-27T11:03:59;19.50;90.50
13211;DHT22;6670;51.53087800;7.23266500;2023-05-27T11:06:27;19.40;90.40
13211;DHT22;6670;51.53087800;7.23266500;2023-05-27T11:08:55;19.50;91.00
13211;DHT22;6670;51.53087800;7.23266500;2023-05-27T11:11:23;19.70;91.50
13211;DHT22;6670;51.53087800;7.23266500;2023-05-27T11:13:51;19.80;90.60
13211;DHT22;6670;51.53087800;7.23266500;2023-05-27T11:16:19;19.80;89.20
13211;DHT22;6670;51.53087800;7.23266500;2023-05-27T11:18:57;20.00;90.20
13211;DHT22;6670;51.53087800;7.23266500;2023-05-27T11:21:44;20.10;90.50
13211;DHT22;6670;51.53087800;7.23266500;2023-05-27T11:24:22;20.30;90.20
13211;DHT22;6670;51.53087800;7.23266500;2023-05-27T11:26:50;20.20;90.30
13211;DHT22;6670;51.53087800;7.23266500;2023-05-27T11:29:17;20.20;90.20
13211;DHT22;6670;51.53087800;7.23266500;2023-05-27T11:31:47;20.20;90.70
13211;DHT22;6670;51.53087800;7.23266500;2023-05-27T11:34:15;20.30;90.60
13211;DHT22;6670;51.53087800;7.23266500;2023-05-27T11:36:49;20.30;91.90
13211;DHT22;6670;51.53087800;7.23266500;2023-05-27T11:39:17;20.50;91.40
13211;DHT22;6670;51.53087800;7.23266500;2023-05-27T11:41:48;20.40;91.40
13211;DHT22;6670;51.53087800;7.23266500;2023-05-27T11:44:17;20.30;91.40
13211;DHT22;6670;51.53087800;7.23266500;2023-05-27T11:46:51;20.50;90.70
13211;DHT22;6670;51.53087800;7.23266500;2023-05-27T11:49:19;20.60;88.90
13211;DHT22;6670;51.53087800;7.23266500;2023-05-27T11:51:49;20.70;90.10
13211;DHT22;6670;51.53087800;7.23266500;2023-05-27T11:54:18;20.70;88.00
13211;DHT22;6670;51.53087800;7.23266500;2023-05-27T11:56:47;20.80;88.10
13211;DHT22;6670;51.53087800;7.23266500;2023-05-27T11:59:15;20.70;89.30
13211;DHT22;6670;51.53087800;7.23266500;2023-05-27T12:01:43;20.80;88.30
13211;DHT22;6670;51.53087800;7.23266500;2023-05-27T12:04:11;21.00;86.10
13211;DHT22;6670;51.53087800;7.23266500;2023-05-27T12:06:39;21.00;88.40
13211;DHT22;6670;51.53087800;7.23266500;2023-05-27T12:09:09;21.00;84.20
13211;DHT22;6670;51.53087800;7.23266500;2023-05-27T12:11:37;21.20;83.60
13211;DHT22;6670;51.53087800;7.23266500;2023-05-27T12:14:05;21.00;85.00
13211;DHT22;6670;51.53087800;7.23266500;2023-05-27T12:16:43;21.00;82.40
13211;DHT22;6670;51.53087800;7.23266500;2023-05-27T12:19:10;21.40;81.30
13211;DHT22;6670;51.53087800;7.23266500;2023-05-27T12:21:38;21.60;80.40
13211;DHT22;6670;51.53087800;7.23266500;2023-05-27T12:24:06;21.40;77.20
13211;DHT22;6670;51.53087800;7.23266500;2023-05-27T12:26:35;21.60;78.70
13211;DHT22;6670;51.53087800;7.23266500;2023-05-27T12:29:03;21.70;80.00
13211;DHT22;6670;51.53087800;7.23266500;2023-05-27T12:31:31;21.80;80.20
13211;DHT22;6670;51.53087800;7.23266500;2023-05-27T12:33:58;22.10;77.60
13211;DHT22;6670;51.53087800;7.23266500;2023-05-27T12:36:25;21.90;74.00
13211;DHT22;6670;51.53087800;7.23266500;2023-05-27T12:38:53;21.80;73.60
13211;DHT22;6670;51.53087800;7.23266500;2023-05-27T12:41:21;21.80;71.50
13211;DHT22;6670;51.53087800;7.23266500;2023-05-27T12:43:50;21.80;75.40
13211;DHT22;6670;51.53087800;7.23266500;2023-05-27T12:46:18;21.90;76.60
13211;DHT22;6670;51.53087800;7.23266500;2023-05-27T12:48:45;22.10;77.40
13211;DHT22;6670;51.53087800;7.23266500;2023-05-27T12:51:13;22.20;78.20
13211;DHT22;6670;51.53087800;7.23266500;2023-05-27T12:53:40;21.90;79.60
13211;DHT22;6670;51.53087800;7.23266500;2023-05-27T12:56:09;22.00;78.20
13211;DHT22;6670;51.53087800;7.23266500;2023-05-27T12:58:38;22.40;77.90
13211;DHT22;6670;51.53087800;7.23266500;2023-05-27T13:01:07;22.30;76.20
13211;DHT22;6670;51.53087800;7.23266500;2023-05-27T13:03:49;22.20;73.90
13211;DHT22;6670;51.53087800;7.23266500;2023-05-27T13:06:17;22.50;74.10
13211;DHT22;6670;51.53087800;7.23266500;2023-05-27T13:08:45;23.00;74.90
13211;DHT22;6670;51.53087800;7.23266500;2023-05-27T13:11:12;23.00;77.60
13211;DHT22;6670;51.53087800;7.23266500;2023-05-27T13:13:39;22.70;78.40
13211;DHT22;6670;51.53087800;7.23266500;2023-05-27T13:16:09;22.60;79.60
13211;DHT22;6670;51.53087800;7.23266500;2023-05-27T13:18:37;22.90;79.70
13211;DHT22;6670;51.53087800;7.23266500;2023-05-27T13:21:05;23.00;76.70
13211;DHT22;6670;51.53087800;7.23266500;2023-05-27T13:23:32;23.10;70.00
13211;DHT22;6670;51.53087800;7.23266500;2023-05-27T13:25:59;22.70;67.80
13211;DHT22;6670;51.53087800;7.23266500;2023-05-27T13:28:27;23.00;70.00
13211;DHT22;6670;51.53087800;7.23266500;2023-05-27T13:30:54;23.50;71.90
13211;DHT22;6670;51.53087800;7.23266500;2023-05-27T13:33:23;23.50;73.50
13211;DHT22;6670;51.53087800;7.23266500;2023-05-27T13:35:51;23.30;76.80
13211;DHT22;6670;51.53087800;7.23266500;2023-05-27T13:38:18;22.80;76.10
13211;DHT22;6670;51.53087800;7.23266500;2023-05-27T13:40:45;22.70;77.40
13211;DHT22;6670;51.53087800;7.23266500;2023-05-27T13:43:13;23.30;74.80
13211;DHT22;6670;51.53087800;7.23266500;2023-05-27T13:45:41;23.10;74.30
13211;DHT22;6670;51.53087800;7.23266500;2023-05-27T13:48:08;23.00;75.00
13211;DHT22;6670;51.53087800;7.23266500;2023-05-27T13:50:39;23.00;74.60
13211;DHT22;6670;51.53087800;7.23266500;2023-05-27T13:53:06;23.10;72.60
13211;DHT22;6670;51.53087800;7.23266500;2023-05-27T13:55:34;23.40;74.00